SMZO/ORG METAR and TAF weather

Enter ICAO airport designator
Station Type Date Time Source
SMZO METAR 2021/03/05 20:00 UTC NOAA

SMZO 052000Z 05009KT 9999 FEW012 FEW015CB 29/23 Q1009 NOSIG


Station Type Date Time Source
SMZO Decoded METAR 2021/03/05 20:00 UTC NOAA

Station name not available
Mar 05, 2021 - 03:00 PM EST / 2021.03.05 2000 UTC
Wind: from the NE (050 degrees) at 10 MPH (9 KT):0
Visibility: greater than 7 mile(s):0
Sky conditions: mostly clear
Weather: Cumulonimbus clouds observed
Temperature: 84 F (29 C)
Dew Point: 73 F (23 C)
Relative Humidity: 70%
Pressure (altimeter): 29.80 in. Hg (1009 hPa)
ob: SMZO 052000Z 05009KT 9999 FEW012 FEW015CB 29/23 Q1009 NOSIG
cycle: 20

Station Type Date Time Source
SMZO TAF 2021/03/05 18:42 UTC NOAA

TAF TAF SMZO 051600Z 0518/0618 05010KT 9999 SCT018 TX31/0518Z TN23/0609Z
TEMPO 0518/0522 3000 SHRA FEW015TCU SCT018
BECMG 0523/0601 07004KT CAVOK
FM061100 05010KT 9999 SCT015
TEMPO 0614/0618 VRB12G22KT 3000 SHRA FEW015CB SCT018

Example: see airport list